Time;durP1;ratioP1;P1;durP2;ratioP2;P2;SDS_P1;SDS_P2;PMS_P1;PMS_P2;Temp;Humidity;BMP_temperature;BMP_pressure;BME280_temperature;BME280_humidity;BME280_pressure;Samples;Min_cycle;Max_cycle;Signal;HPM_P1;HPM_P2
2022/11/28 00:00:36;;;;;;;6.05;5.85;;;2.70;99.90;;;;;;5025735;28;20484;-76
2022/11/28 00:03:01;;;;;;;6.72;6.53;;;2.70;99.90;;;;;;5012491;28;20041;-76
2022/11/28 00:05:27;;;;;;;6.18;5.97;;;2.70;99.90;;;;;;5025932;28;20064;-78
2022/11/28 00:07:54;;;;;;;6.47;6.28;;;2.60;99.90;;;;;;5012402;28;20022;-77
2022/11/28 00:10:20;;;;;;;6.25;6.05;;;2.60;99.90;;;;;;5025193;28;20026;-77
2022/11/28 00:12:45;;;;;;;6.43;6.22;;;2.50;99.90;;;;;;5023029;28;20100;-77
2022/11/28 00:15:11;;;;;;;6.35;6.15;;;2.60;99.90;;;;;;5022773;28;20033;-76
2022/11/28 00:17:37;;;;;;;7.18;6.97;;;2.60;99.90;;;;;;5028263;28;20030;-76
2022/11/28 00:20:03;;;;;;;7.75;7.45;;;2.60;99.90;;;;;;5031958;28;20025;-76
2022/11/28 00:22:28;;;;;;;6.30;6.10;;;2.70;99.90;;;;;;5029330;28;20032;-76
2022/11/28 00:24:54;;;;;;;5.90;5.70;;;2.60;99.90;;;;;;5035785;28;20021;-76
2022/11/28 00:27:20;;;;;;;6.35;6.15;;;2.70;99.90;;;;;;5030213;28;20022;-76
2022/11/28 00:29:45;;;;;;;6.22;6.03;;;2.60;99.90;;;;;;5025315;28;20391;-76
2022/11/28 00:32:11;;;;;;;6.53;6.20;;;2.50;99.90;;;;;;5027713;28;20026;-76
2022/11/28 00:34:36;;;;;;;7.00;6.80;;;2.50;99.90;;;;;;5030617;28;20057;-78
2022/11/28 00:37:02;;;;;;;6.75;6.55;;;2.50;99.90;;;;;;5022652;28;20034;-77
2022/11/28 00:39:28;;;;;;;6.57;6.38;;;2.50;99.90;;;;;;5018831;28;20408;-77
2022/11/28 00:41:53;;;;;;;7.03;6.78;;;2.60;99.90;;;;;;5022328;28;20464;-77
2022/11/28 00:44:19;;;;;;;6.28;6.07;;;2.50;99.90;;;;;;5024595;28;20030;-76
2022/11/28 00:46:44;;;;;;;6.18;5.97;;;2.50;99.90;;;;;;5022316;28;20386;-77
2022/11/28 00:49:10;;;;;;;7.10;6.90;;;2.50;99.90;;;;;;5017620;28;20033;-78
2022/11/28 00:51:36;;;;;;;5.80;5.60;;;2.60;99.90;;;;;;5021404;28;20116;-77
2022/11/28 00:54:04;;;;;;;6.82;6.60;;;2.60;99.90;;;;;;5025132;28;20109;-77
2022/11/28 00:56:33;;;;;;;6.18;5.97;;;2.60;99.90;;;;;;5021719;28;20056;-77
2022/11/28 00:58:59;;;;;;;7.63;7.32;;;2.60;99.90;;;;;;5018123;28;20028;-77
2022/11/28 01:01:30;;;;;;;6.63;6.43;;;2.60;99.90;;;;;;5021120;28;20033;-75
2022/11/28 01:03:57;;;;;;;6.13;5.93;;;2.70;99.90;;;;;;5025189;28;20026;-76
2022/11/28 01:06:26;;;;;;;6.25;6.05;;;2.70;99.90;;;;;;5025285;28;20026;-78
2022/11/28 01:08:52;;;;;;;6.45;6.25;;;2.80;99.90;;;;;;5021669;28;20086;-78
2022/11/28 01:11:19;;;;;;;6.53;6.32;;;2.80;99.90;;;;;;5022434;28;20030;-78
2022/11/28 01:13:44;;;;;;;6.13;5.93;;;2.80;99.90;;;;;;5028442;28;20061;-78
2022/11/28 01:16:10;;;;;;;6.25;6.05;;;2.90;99.90;;;;;;5014986;28;20538;-78
2022/11/28 01:18:36;;;;;;;7.07;6.80;;;2.90;99.90;;;;;;5013983;28;20044;-78
2022/11/28 01:21:02;;;;;;;5.28;5.07;;;3.00;99.90;;;;;;5015918;28;20026;-77
2022/11/28 01:23:28;;;;;;;9.73;9.02;;;3.00;99.90;;;;;;5035273;28;20506;-78
2022/11/28 01:25:55;;;;;;;6.57;6.13;;;3.20;99.90;;;;;;5035956;28;20045;-77
2022/11/28 01:28:20;;;;;;;5.65;5.45;;;3.30;99.90;;;;;;5023857;28;20048;-77
2022/11/28 01:30:46;;;;;;;5.57;5.38;;;3.30;99.90;;;;;;5025236;28;20468;-77
2022/11/28 01:33:11;;;;;;;6.05;5.75;;;3.30;99.90;;;;;;5022417;28;20054;-77
2022/11/28 01:35:37;;;;;;;6.22;5.93;;;3.40;99.90;;;;;;5024134;28;20022;-78
2022/11/28 01:38:02;;;;;;;5.20;5.00;;;3.40;99.90;;;;;;5030195;28;20018;-77
2022/11/28 01:40:28;;;;;;;5.70;5.50;;;3.30;99.90;;;;;;5016805;28;20034;-76
2022/11/28 01:42:53;;;;;;;8.18;7.68;;;3.30;99.90;;;;;;5027982;28;20029;-76
2022/11/28 01:45:27;;;;;;;5.80;5.60;;;3.30;99.90;;;;;;5027277;28;20495;-76
2022/11/28 01:47:56;;;;;;;5.15;4.95;;;3.30;99.90;;;;;;5029589;28;20028;-76
2022/11/28 01:50:22;;;;;;;5.50;5.30;;;3.30;99.90;;;;;;5015617;28;20022;-77
2022/11/28 01:52:53;;;;;;;5.60;5.40;;;3.30;99.90;;;;;;5021633;28;20589;-76
2022/11/28 01:55:23;;;;;;;5.22;4.97;;;3.40;99.90;;;;;;5021045;28;20022;-76
2022/11/28 01:57:50;;;;;;;5.97;5.78;;;3.40;99.90;;;;;;5027044;28;20030;-76
2022/11/28 02:00:19;;;;;;;6.47;6.28;;;3.30;99.90;;;;;;5027976;28;20124;-76
2022/11/28 02:02:55;;;;;;;6.00;5.80;;;3.30;99.90;;;;;;5022808;28;20026;-76
2022/11/28 02:05:22;;;;;;;5.15;4.95;;;3.30;99.90;;;;;;5031853;28;20104;-76
2022/11/28 02:07:49;;;;;;;6.38;6.07;;;3.30;99.90;;;;;;5025103;28;20018;-77
2022/11/28 02:10:18;;;;;;;6.70;6.45;;;3.30;99.90;;;;;;5020579;28;20029;-77
2022/11/28 02:13:00;;;;;;;6.20;6.00;;;3.30;99.90;;;;;;5024227;28;20030;-77
2022/11/28 02:15:55;;;;;;;6.70;6.50;;;3.30;99.90;;;;;;5033847;28;20052;-76
2022/11/28 02:18:38;;;;;;;6.85;6.55;;;3.30;99.90;;;;;;5007802;28;20541;-76
2022/11/28 02:21:28;;;;;;;6.03;5.82;;;3.30;99.90;;;;;;5032821;28;20025;-76
2022/11/28 02:24:28;;;;;;;6.85;6.53;;;3.30;99.90;;;;;;5026004;28;20096;-76
2022/11/28 02:27:20;;;;;;;9.95;5.70;;;3.50;99.90;;;;;;5007176;28;20455;-76
2022/11/28 02:29:55;;;;;;;6.15;5.68;;;3.60;99.90;;;;;;5021335;28;20460;-77
2022/11/28 02:32:40;;;;;;;5.17;4.87;;;3.50;99.90;;;;;;5024073;28;20030;-76
2022/11/28 02:35:18;;;;;;;7.72;5.45;;;3.40;99.90;;;;;;5003228;28;20032;-75
2022/11/28 02:37:58;;;;;;;4.93;4.63;;;3.50;99.90;;;;;;5016852;28;20542;-76
2022/11/28 02:40:48;;;;;;;5.95;5.60;;;3.40;99.90;;;;;;5022107;28;20092;-76
2022/11/28 02:43:28;;;;;;;5.28;5.00;;;3.40;99.90;;;;;;5009555;28;20026;-77
2022/11/28 02:45:58;;;;;;;4.38;4.18;;;3.40;99.90;;;;;;5024204;28;20029;-77
2022/11/28 02:48:39;;;;;;;5.55;5.25;;;3.30;99.90;;;;;;5024925;28;20072;-77
2022/11/28 02:51:13;;;;;;;6.65;6.25;;;3.30;99.90;;;;;;5021077;28;20045;-77
2022/11/28 02:53:42;;;;;;;6.38;5.97;;;3.20;99.90;;;;;;5021792;28;20535;-79
2022/11/28 02:56:10;;;;;;;7.20;6.75;;;3.10;99.90;;;;;;5030480;28;20102;-78
2022/11/28 02:58:35;;;;;;;5.13;4.93;;;3.10;99.90;;;;;;5029401;28;20021;-79
2022/11/28 03:01:01;;;;;;;5.15;4.95;;;3.10;99.90;;;;;;5023956;28;20021;-78
2022/11/28 03:03:59;;;;;;;5.60;5.40;;;3.10;99.90;;;;;;5024443;28;20017;-78
2022/11/28 03:06:42;;;;;;;6.28;6.07;;;3.00;99.90;;;;;;5022949;28;20080;-76
2022/11/28 03:09:47;;;;;;;4.90;4.70;;;3.10;99.90;;;;;;5004019;28;20324;-77
2022/11/28 03:12:27;;;;;;;5.10;4.90;;;3.00;99.90;;;;;;5007985;28;20521;-77
2022/11/28 03:14:55;;;;;;;4.75;4.60;;;3.00;99.90;;;;;;5020095;28;20046;-78
2022/11/28 03:17:40;;;;;;;5.40;5.20;;;3.00;99.90;;;;;;5023043;28;20092;-78
2022/11/28 03:20:24;;;;;;;5.75;5.55;;;3.00;99.90;;;;;;5031155;28;20078;-77
2022/11/28 03:22:52;;;;;;;5.18;4.97;;;2.90;99.90;;;;;;5020004;28;20029;-77
2022/11/28 03:25:43;;;;;;;5.20;5.00;;;2.90;99.90;;;;;;5024201;28;20105;-77
2022/11/28 03:28:23;;;;;;;6.70;6.50;;;2.90;99.90;;;;;;5025312;28;20079;-77
2022/11/28 03:30:54;;;;;;;5.32;5.13;;;2.90;99.90;;;;;;5025674;28;20029;-77
2022/11/28 03:33:22;;;;;;;6.25;6.05;;;2.90;99.90;;;;;;5024910;28;20030;-76
2022/11/28 03:35:52;;;;;;;6.55;6.35;;;3.00;99.90;;;;;;5025191;28;20034;-77
2022/11/28 03:38:24;;;;;;;6.97;6.68;;;3.00;99.90;;;;;;5018895;28;20036;-76
2022/11/28 03:40:54;;;;;;;5.63;5.43;;;3.00;99.90;;;;;;5029777;28;20041;-75
2022/11/28 03:43:25;;;;;;;5.10;4.90;;;2.90;99.90;;;;;;5021345;28;20030;-76
2022/11/28 03:45:55;;;;;;;5.03;4.82;;;3.00;99.90;;;;;;5022980;28;20033;-78
2022/11/28 03:48:32;;;;;;;5.93;5.72;;;3.00;99.90;;;;;;5021497;28;20041;-78
2022/11/28 03:51:27;;;;;;;5.55;5.35;;;2.90;99.90;;;;;;5025545;28;20072;-78
2022/11/28 03:53:58;;;;;;;6.05;5.85;;;2.90;99.90;;;;;;5002031;28;20113;-77
2022/11/28 03:56:50;;;;;;;5.85;5.65;;;2.90;99.90;;;;;;5022722;28;20097;-77
2022/11/28 03:59:22;;;;;;;6.03;5.78;;;2.90;99.90;;;;;;4998650;28;20029;-78
2022/11/28 04:02:12;;;;;;;6.10;5.90;;;2.90;99.90;;;;;;5025879;28;20017;-76
2022/11/28 04:04:56;;;;;;;5.10;4.90;;;2.90;99.90;;;;;;5022659;28;20030;-76
2022/11/28 04:07:41;;;;;;;5.00;4.80;;;3.00;99.90;;;;;;4993187;28;20101;-75
2022/11/28 04:10:31;;;;;;;6.13;5.93;;;3.00;99.90;;;;;;4998851;28;20029;-76
2022/11/28 04:13:21;;;;;;;5.22;5.03;;;2.90;99.90;;;;;;5019436;28;20057;-77
2022/11/28 04:15:55;;;;;;;5.85;5.65;;;2.90;99.90;;;;;;5011902;28;20087;-76
2022/11/28 04:18:32;;;;;;;5.65;5.45;;;2.90;99.90;;;;;;5018748;28;20475;-77
2022/11/28 04:21:23;;;;;;;6.03;5.82;;;2.90;99.90;;;;;;5020017;28;20061;-77
2022/11/28 04:23:51;;;;;;;5.50;5.30;;;3.00;99.90;;;;;;5011168;28;20388;-77
2022/11/28 04:26:23;;;;;;;6.43;6.22;;;3.00;99.90;;;;;;5017675;28;20025;-77
2022/11/28 04:28:51;;;;;;;6.03;5.82;;;3.00;99.90;;;;;;5022463;28;20380;-77
2022/11/28 04:31:21;;;;;;;6.38;6.18;;;2.90;99.90;;;;;;5024267;28;20028;-77
2022/11/28 04:33:53;;;;;;;6.25;6.05;;;2.90;99.90;;;;;;5021132;28;20423;-78
2022/11/28 04:36:22;;;;;;;5.45;5.25;;;2.90;99.90;;;;;;5018734;28;20037;-78
2022/11/28 04:38:55;;;;;;;5.70;5.50;;;3.00;99.90;;;;;;5020188;28;20053;-77
2022/11/28 04:41:23;;;;;;;6.20;6.00;;;2.90;99.90;;;;;;5024015;28;20504;-78
2022/11/28 04:43:59;;;;;;;6.00;5.80;;;2.90;99.90;;;;;;5023438;28;20018;-78
2022/11/28 04:46:28;;;;;;;;;;;3.00;99.90;;;;;;5006705;28;20022;-78
2022/11/28 04:48:54;;;;;;;5.40;5.20;;;3.00;99.90;;;;;;5017324;28;19944;-78
2022/11/28 04:51:45;;;;;;;5.65;5.45;;;3.00;99.90;;;;;;5019977;28;20068;-77
2022/11/28 04:54:22;;;;;;;7.47;7.18;;;3.00;99.90;;;;;;5017088;28;20179;-77
2022/11/28 04:56:54;;;;;;;6.75;6.55;;;3.00;99.90;;;;;;5034918;28;20035;-78
2022/11/28 04:59:23;;;;;;;5.72;5.53;;;3.10;99.90;;;;;;5010174;28;20032;-77
2022/11/28 05:01:49;;;;;;;6.43;6.22;;;3.10;99.90;;;;;;5021327;28;20022;-77
2022/11/28 05:04:16;;;;;;;5.60;5.40;;;3.00;99.90;;;;;;5028298;28;20018;-76
2022/11/28 05:06:42;;;;;;;6.28;6.07;;;2.90;99.90;;;;;;5027775;28;20061;-75
2022/11/28 05:09:12;;;;;;;6.38;6.15;;;2.90;99.90;;;;;;5015609;28;20057;-76
2022/11/28 05:11:38;;;;;;;5.72;5.53;;;2.90;99.90;;;;;;5029145;28;20040;-76
2022/11/28 05:14:04;;;;;;;5.60;5.40;;;2.90;99.90;;;;;;5024122;28;20021;-76
2022/11/28 05:16:30;;;;;;;5.72;5.53;;;3.00;99.90;;;;;;5022313;28;20030;-77
2022/11/28 05:18:55;;;;;;;5.22;5.03;;;3.00;99.90;;;;;;5033994;28;20132;-77
2022/11/28 05:21:21;;;;;;;6.32;6.13;;;2.90;99.90;;;;;;5022108;28;20563;-76
2022/11/28 05:23:47;;;;;;;5.55;5.35;;;2.90;99.90;;;;;;5036688;28;20031;-78
2022/11/28 05:26:16;;;;;;;5.45;5.25;;;2.90;99.90;;;;;;5024459;28;20054;-77
2022/11/28 05:28:46;;;;;;;6.03;5.82;;;2.90;99.90;;;;;;5029099;28;20036;-77
2022/11/28 05:31:13;;;;;;;5.20;5.00;;;2.90;99.90;;;;;;5028033;28;20025;-78
2022/11/28 05:33:39;;;;;;;6.30;6.03;;;2.90;99.90;;;;;;5023363;28;20120;-77
2022/11/28 05:36:10;;;;;;;7.07;6.88;;;2.90;99.90;;;;;;5022016;28;20112;-77
2022/11/28 05:38:36;;;;;;;6.10;5.90;;;2.90;99.90;;;;;;5025281;28;20029;-77
2022/11/28 05:41:02;;;;;;;6.20;6.00;;;2.90;99.90;;;;;;5029065;28;20034;-78
2022/11/28 05:43:28;;;;;;;6.93;6.63;;;2.70;99.90;;;;;;5024778;28;20026;-77
2022/11/28 05:45:54;;;;;;;6.72;6.53;;;2.90;99.90;;;;;;5021606;28;20041;-76
2022/11/28 05:48:20;;;;;;;6.53;6.32;;;3.00;99.90;;;;;;5024605;28;20029;-77
2022/11/28 05:50:45;;;;;;;6.90;6.60;;;2.90;99.90;;;;;;5028032;28;20029;-77
2022/11/28 05:53:11;;;;;;;8.93;8.57;;;3.00;99.90;;;;;;5022603;28;20116;-75
2022/11/28 05:55:38;;;;;;;6.38;6.18;;;2.90;99.90;;;;;;5019323;28;20484;-75
2022/11/28 05:58:04;;;;;;;13.55;12.77;;;3.00;99.90;;;;;;5022410;28;20466;-75
2022/11/28 06:00:29;;;;;;;5.93;5.72;;;2.90;99.90;;;;;;5019409;28;20113;-76
2022/11/28 06:02:55;;;;;;;6.75;6.45;;;2.80;99.90;;;;;;5023411;28;20061;-76
2022/11/28 06:05:21;;;;;;;6.75;6.55;;;2.90;99.90;;;;;;5032853;28;20020;-76
2022/11/28 06:07:47;;;;;;;8.00;7.72;;;2.90;99.90;;;;;;5021731;28;20032;-76
2022/11/28 06:10:12;;;;;;;6.43;6.22;;;3.00;99.90;;;;;;5021203;28;20021;-76
2022/11/28 06:12:38;;;;;;;6.25;6.05;;;3.00;99.90;;;;;;5024935;28;20022;-76
2022/11/28 06:15:03;;;;;;;5.80;5.60;;;3.00;99.90;;;;;;5028561;28;20029;-75
2022/11/28 06:17:30;;;;;;;5.53;5.32;;;2.90;99.90;;;;;;5025244;28;20040;-75
2022/11/28 06:19:55;;;;;;;6.47;6.28;;;3.00;99.90;;;;;;5026317;28;20491;-75
2022/11/28 06:22:21;;;;;;;6.55;6.35;;;3.00;99.90;;;;;;5021639;28;20022;-75
2022/11/28 06:24:46;;;;;;;5.63;5.43;;;3.00;99.90;;;;;;5030447;28;20112;-77
2022/11/28 06:27:12;;;;;;;6.43;6.13;;;3.00;99.90;;;;;;5023783;28;20160;-77
2022/11/28 06:29:37;;;;;;;7.93;7.63;;;3.00;99.90;;;;;;5020714;28;20068;-77
2022/11/28 06:32:03;;;;;;;6.38;6.18;;;3.00;99.90;;;;;;5024608;28;20092;-77
2022/11/28 06:34:29;;;;;;;5.55;5.30;;;3.00;99.90;;;;;;5026143;28;20033;-77
2022/11/28 06:36:54;;;;;;;9.65;9.15;;;3.10;99.90;;;;;;5023355;28;20034;-77
2022/11/28 06:39:20;;;;;;;8.05;7.75;;;3.10;99.90;;;;;;5019214;28;20033;-77
2022/11/28 06:41:45;;;;;;;10.43;9.63;;;3.00;99.90;;;;;;5023418;28;20026;-77
2022/11/28 06:44:13;;;;;;;10.25;9.50;;;2.90;99.90;;;;;;5029997;28;20025;-77
2022/11/28 06:46:39;;;;;;;7.07;6.68;;;2.80;99.90;;;;;;5025392;28;20022;-76
2022/11/28 06:49:05;;;;;;;11.43;10.35;;;2.90;99.90;;;;;;5027504;28;20035;-77
2022/11/28 06:51:30;;;;;;;5.97;5.78;;;2.80;99.90;;;;;;5021896;28;20116;-77
2022/11/28 06:53:56;;;;;;;6.32;6.13;;;2.80;99.90;;;;;;5017897;28;20109;-77
2022/11/28 06:56:22;;;;;;;6.65;6.45;;;2.80;99.90;;;;;;5013931;28;20022;-78
2022/11/28 06:58:53;;;;;;;5.75;5.55;;;2.80;99.90;;;;;;5026792;28;20451;-77
2022/11/28 07:01:20;;;;;;;6.30;6.10;;;2.90;99.90;;;;;;5024327;28;20013;-77
2022/11/28 07:03:47;;;;;;;6.28;6.07;;;3.00;99.90;;;;;;5019939;28;20091;-77
2022/11/28 07:06:14;;;;;;;6.03;5.82;;;3.00;99.90;;;;;;5023231;28;20083;-77
2022/11/28 07:08:40;;;;;;;5.88;5.68;;;3.00;99.90;;;;;;5026691;28;20030;-77
2022/11/28 07:11:10;;;;;;;6.28;6.07;;;3.10;99.90;;;;;;5024156;28;20364;-77
2022/11/28 07:13:36;;;;;;;4.82;4.68;;;3.10;99.90;;;;;;5015467;28;20583;-77
2022/11/28 07:16:02;;;;;;;5.88;5.68;;;3.20;99.90;;;;;;5023559;28;20033;-77
2022/11/28 07:18:28;;;;;;;5.05;4.85;;;3.20;99.90;;;;;;5019961;28;20021;-78
2022/11/28 07:20:53;;;;;;;5.55;5.35;;;3.30;99.90;;;;;;5021905;28;20033;-79
2022/11/28 07:23:19;;;;;;;6.28;6.07;;;3.30;99.90;;;;;;5027503;28;20091;-77
2022/11/28 07:25:44;;;;;;;5.57;5.38;;;3.30;99.90;;;;;;5013295;28;20108;-76
2022/11/28 07:28:10;;;;;;;5.55;5.35;;;3.30;99.90;;;;;;5026380;28;20061;-76
2022/11/28 07:30:36;;;;;;;5.18;4.97;;;3.30;99.90;;;;;;5022119;28;20186;-77
2022/11/28 07:33:01;;;;;;;6.43;6.18;;;3.40;99.90;;;;;;5016112;28;20062;-77
2022/11/28 07:35:27;;;;;;;5.63;5.43;;;3.40;99.90;;;;;;5023167;28;20025;-77
2022/11/28 07:37:52;;;;;;;5.00;4.80;;;3.30;99.90;;;;;;5019556;28;20108;-77
2022/11/28 07:40:19;;;;;;;8.90;8.50;;;3.30;99.90;;;;;;5022453;28;20065;-77
2022/11/28 07:42:45;;;;;;;5.45;5.25;;;3.30;99.90;;;;;;5026332;28;20014;-76
2022/11/28 07:45:11;;;;;;;10.30;9.77;;;3.20;99.90;;;;;;5022813;28;20029;-77
2022/11/28 07:47:36;;;;;;;7.05;6.85;;;3.30;99.90;;;;;;5019186;28;20384;-76
2022/11/28 07:50:02;;;;;;;5.47;5.28;;;3.40;99.90;;;;;;5022521;28;20431;-77
2022/11/28 07:52:28;;;;;;;8.95;8.60;;;3.50;99.90;;;;;;5014827;28;20554;-77
2022/11/28 07:54:53;;;;;;;5.97;5.78;;;3.40;99.90;;;;;;5022532;28;20076;-77
2022/11/28 07:57:19;;;;;;;5.50;5.30;;;3.40;99.90;;;;;;5018466;28;20085;-77
2022/11/28 07:59:44;;;;;;;5.78;5.47;;;3.50;99.90;;;;;;5021263;28;20018;-77
2022/11/28 08:02:11;;;;;;;5.43;5.22;;;3.40;99.90;;;;;;5028534;28;20098;-77
2022/11/28 08:04:37;;;;;;;5.50;5.30;;;3.20;99.90;;;;;;5032320;28;20029;-76
2022/11/28 08:07:02;;;;;;;5.88;5.68;;;3.30;99.90;;;;;;5017154;28;20022;-76
2022/11/28 08:09:28;;;;;;;6.15;5.95;;;3.30;99.90;;;;;;5021505;28;20511;-76
2022/11/28 08:11:54;;;;;;;6.10;5.90;;;3.30;99.90;;;;;;5025669;28;20136;-76
2022/11/28 08:14:19;;;;;;;5.68;5.47;;;3.40;99.90;;;;;;5021847;28;20045;-76
2022/11/28 08:16:45;;;;;;;7.00;6.80;;;3.50;99.90;;;;;;5018775;28;20033;-76
2022/11/28 08:19:11;;;;;;;7.05;6.75;;;3.60;99.90;;;;;;5022008;28;20055;-77
2022/11/28 08:21:37;;;;;;;5.38;5.18;;;3.70;99.90;;;;;;5024255;28;20030;-76
2022/11/28 08:24:04;;;;;;;6.00;5.80;;;3.70;99.90;;;;;;5020402;28;20427;-77
2022/11/28 08:26:31;;;;;;;5.55;5.35;;;3.70;99.90;;;;;;5026851;28;20648;-77
2022/11/28 08:28:58;;;;;;;12.55;7.53;;;3.70;99.90;;;;;;5020559;28;20426;-77
2022/11/28 08:31:27;;;;;;;6.15;5.95;;;3.70;99.90;;;;;;5018114;28;20029;-77
2022/11/28 08:33:54;;;;;;;5.50;5.30;;;3.70;99.90;;;;;;5027679;28;20068;-77
2022/11/28 08:36:20;;;;;;;6.10;5.90;;;3.80;99.90;;;;;;5013076;28;20117;-77
2022/11/28 08:38:47;;;;;;;6.47;6.28;;;3.80;99.90;;;;;;5021803;28;20064;-76
2022/11/28 08:41:19;;;;;;;5.93;5.72;;;3.80;99.90;;;;;;5013657;28;20038;-76
2022/11/28 08:43:45;;;;;;;5.88;5.68;;;3.90;99.90;;;;;;5012281;28;20423;-76
2022/11/28 08:46:17;;;;;;;5.80;5.60;;;3.80;99.90;;;;;;5025583;28;20026;-75
2022/11/28 08:48:43;;;;;;;7.15;6.95;;;3.80;99.90;;;;;;5010320;28;20025;-76
2022/11/28 08:51:15;;;;;;;6.38;6.18;;;3.90;99.90;;;;;;5016742;28;20116;-76
2022/11/28 08:53:42;;;;;;;6.28;5.97;;;4.00;99.90;;;;;;5017086;28;20030;-75
2022/11/28 08:56:08;;;;;;;5.80;5.60;;;4.10;99.90;;;;;;5023769;28;20037;-76
2022/11/28 08:58:34;;;;;;;5.97;5.78;;;4.00;99.90;;;;;;5024293;28;20080;-76
2022/11/28 09:00:59;;;;;;;6.28;6.07;;;4.00;99.90;;;;;;5018157;28;20025;-76
2022/11/28 09:03:25;;;;;;;7.13;6.93;;;4.00;99.90;;;;;;5018389;28;20022;-76
2022/11/28 09:05:52;;;;;;;5.80;5.60;;;4.10;99.90;;;;;;5023729;28;20033;-76
2022/11/28 09:08:19;;;;;;;6.22;6.03;;;4.20;99.90;;;;;;5026893;28;20013;-76
2022/11/28 09:10:45;;;;;;;5.40;5.20;;;4.10;99.90;;;;;;5031289;28;20048;-76
2022/11/28 09:13:13;;;;;;;6.35;6.15;;;4.10;99.90;;;;;;5018255;28;20558;-76
2022/11/28 09:15:40;;;;;;;5.78;5.57;;;4.20;99.90;;;;;;5005733;28;20029;-76
2022/11/28 09:18:06;;;;;;;6.03;5.82;;;4.20;99.90;;;;;;5017600;28;20038;-76
2022/11/28 09:20:32;;;;;;;5.75;5.55;;;4.20;99.90;;;;;;5022914;28;20041;-77
2022/11/28 09:22:58;;;;;;;6.63;6.43;;;4.30;99.90;;;;;;5024947;28;20029;-75
2022/11/28 09:25:23;;;;;;;6.68;6.47;;;4.40;99.90;;;;;;5011248;28;20033;-77
2022/11/28 09:27:49;;;;;;;6.20;6.00;;;4.50;99.90;;;;;;5020569;28;20028;-77
2022/11/28 09:30:14;;;;;;;5.78;5.57;;;4.50;99.90;;;;;;5023566;28;20069;-77
2022/11/28 09:32:40;;;;;;;5.80;5.60;;;4.40;99.90;;;;;;5024124;28;20033;-76
2022/11/28 09:35:06;;;;;;;6.22;6.03;;;4.50;99.90;;;;;;5033508;28;20026;-79
2022/11/28 09:37:32;;;;;;;5.82;5.63;;;4.50;99.90;;;;;;5022139;28;20029;-79
2022/11/28 09:39:57;;;;;;;6.18;5.97;;;4.50;99.90;;;;;;5021090;28;20036;-79
2022/11/28 09:42:29;;;;;;;5.45;5.25;;;4.50;99.90;;;;;;5030216;28;20033;-77
2022/11/28 09:45:00;;;;;;;5.65;5.45;;;4.50;99.90;;;;;;5018238;28;20032;-76
2022/11/28 09:47:28;;;;;;;5.85;5.65;;;4.30;99.90;;;;;;5029130;28;20025;-76
2022/11/28 09:50:01;;;;;;;6.18;5.97;;;4.40;99.90;;;;;;5015151;28;20021;-76
2022/11/28 09:52:40;;;;;;;6.18;5.97;;;4.50;99.90;;;;;;5018142;28;20112;-76
2022/11/28 09:55:17;;;;;;;5.55;5.35;;;4.40;99.90;;;;;;5021596;28;20022;-76
2022/11/28 09:57:49;;;;;;;5.60;5.40;;;4.50;99.90;;;;;;5021890;28;20057;-77
2022/11/28 10:00:22;;;;;;;5.72;5.53;;;4.60;99.90;;;;;;5034690;28;20075;-77
2022/11/28 10:03:16;;;;;;;5.95;5.75;;;4.60;99.90;;;;;;5015326;28;20444;-76
2022/11/28 10:05:59;;;;;;;6.32;6.13;;;4.70;99.90;;;;;;5033944;28;20499;-77
2022/11/28 10:08:42;;;;;;;6.05;5.85;;;4.70;99.90;;;;;;5035731;28;20025;-77
2022/11/28 10:11:19;;;;;;;5.30;5.10;;;4.80;99.90;;;;;;5025738;28;20045;-76
2022/11/28 10:14:04;;;;;;;6.63;6.40;;;4.60;99.90;;;;;;5035640;28;20068;-76
2022/11/28 10:16:57;;;;;;;5.85;5.65;;;4.50;99.90;;;;;;5020904;28;20022;-76
2022/11/28 10:19:54;;;;;;;5.75;5.55;;;4.50;99.90;;;;;;5027459;28;20021;-76
2022/11/28 10:22:33;;;;;;;5.60;5.30;;;4.60;99.90;;;;;;5010465;28;20152;-77
2022/11/28 10:25:05;;;;;;;5.05;4.85;;;4.60;99.90;;;;;;5035297;28;20048;-75
2022/11/28 10:27:34;;;;;;;9.48;8.90;;;4.60;99.90;;;;;;5024868;28;20026;-77
2022/11/28 10:30:21;;;;;;;6.05;5.85;;;4.60;99.90;;;;;;5022616;28;20443;-76
2022/11/28 10:33:21;;;;;;;6.40;6.20;;;4.60;99.90;;;;;;5033670;28;20029;-76
2022/11/28 10:35:52;;;;;;;5.43;5.22;;;4.70;99.90;;;;;;5014209;28;20395;-76
2022/11/28 10:38:24;;;;;;;4.40;4.30;;;4.70;99.90;;;;;;5027356;28;20108;-76
2022/11/28 10:40:52;;;;;;;4.60;4.50;;;4.70;99.90;;;;;;5029596;28;20026;-76
2022/11/28 10:43:42;;;;;;;4.97;4.78;;;4.80;99.90;;;;;;5025366;28;20542;-76
2022/11/28 10:46:48;;;;;;;5.68;5.47;;;4.80;99.90;;;;;;5026329;28;20084;-76
2022/11/28 10:49:42;;;;;;;5.72;5.47;;;4.90;99.90;;;;;;5015757;28;20068;-76
2022/11/28 10:52:17;;;;;;;5.00;4.80;;;4.80;99.90;;;;;;5032768;28;20099;-75
2022/11/28 10:54:49;;;;;;;5.78;5.53;;;4.90;99.90;;;;;;5032192;28;20391;-76
2022/11/28 10:57:21;;;;;;;4.57;4.47;;;5.00;99.90;;;;;;5032449;28;20028;-76
2022/11/28 11:00:13;;;;;;;4.45;4.35;;;5.10;99.90;;;;;;5033436;28;20056;-76
2022/11/28 11:02:53;;;;;;;4.20;4.10;;;5.00;99.90;;;;;;5033691;28;20545;-76
2022/11/28 11:05:36;;;;;;;5.05;4.85;;;5.10;99.90;;;;;;5032275;28;20033;-76
2022/11/28 11:08:15;;;;;;;4.22;4.13;;;5.20;99.90;;;;;;5022272;28;20045;-76
2022/11/28 11:10:47;;;;;;;4.30;4.20;;;5.30;99.90;;;;;;5026367;28;20491;-76
2022/11/28 11:13:18;;;;;;;4.70;4.57;;;5.50;99.90;;;;;;5031456;28;20021;-77
2022/11/28 11:15:45;;;;;;;4.63;4.53;;;5.50;99.90;;;;;;5021139;28;20032;-77
2022/11/28 11:18:22;;;;;;;4.20;4.10;;;5.40;99.90;;;;;;5028867;28;20460;-77
2022/11/28 11:20:47;;;;;;;4.13;3.97;;;5.50;99.90;;;;;;5022548;28;20026;-76
2022/11/28 11:23:16;;;;;;;4.15;4.05;;;5.50;99.90;;;;;;5020471;28;20022;-76
2022/11/28 11:25:55;;;;;;;3.80;3.70;;;5.50;99.90;;;;;;5027355;28;20495;-76
2022/11/28 11:28:30;;;;;;;3.28;3.17;;;5.50;99.90;;;;;;5025554;28;20022;-77
2022/11/28 11:31:05;;;;;;;3.42;3.33;;;5.50;99.90;;;;;;5018001;28;20057;-77
2022/11/28 11:33:35;;;;;;;3.67;3.58;;;5.60;99.90;;;;;;5023310;28;20064;-77
2022/11/28 11:36:25;;;;;;;4.68;4.53;;;5.60;99.90;;;;;;5027122;28;20030;-76
2022/11/28 11:39:02;;;;;;;3.65;3.55;;;5.50;99.90;;;;;;5024243;28;20033;-77
2022/11/28 11:41:30;;;;;;;3.20;3.10;;;5.60;99.90;;;;;;5027197;28;20022;-76
2022/11/28 11:44:21;;;;;;;2.90;2.80;;;5.70;99.90;;;;;;5027789;28;20022;-77
2022/11/28 11:47:10;;;;;;;3.08;2.97;;;5.70;99.90;;;;;;5013168;28;20032;-77
2022/11/28 11:49:42;;;;;;;3.25;3.15;;;5.60;99.90;;;;;;5016532;28;20515;-76
2022/11/28 11:52:11;;;;;;;3.20;3.10;;;5.60;99.90;;;;;;5012509;28;20331;-77
2022/11/28 11:54:58;;;;;;;5.60;5.22;;;5.70;99.90;;;;;;5031223;28;20026;-77
2022/11/28 11:57:49;;;;;;;2.92;2.83;;;5.60;99.90;;;;;;5031533;28;20127;-77
2022/11/28 12:00:19;;;;;;;3.13;3.03;;;5.60;99.90;;;;;;5005985;28;20508;-77
2022/11/28 12:02:51;;;;;;;2.88;2.78;;;5.60;99.90;;;;;;5020256;28;20503;-77
2022/11/28 12:05:18;;;;;;;2.80;2.70;;;5.70;99.90;;;;;;5019080;28;20025;-77
2022/11/28 12:08:01;;;;;;;2.03;2.03;;;5.80;99.90;;;;;;5031747;28;20030;-76
2022/11/28 12:10:33;;;;;;;2.50;2.40;;;5.80;99.90;;;;;;5032009;28;20096;-77
2022/11/28 12:13:00;;;;;;;3.03;2.92;;;5.80;99.90;;;;;;5030763;28;20021;-76
2022/11/28 12:16:01;;;;;;;3.08;2.97;;;5.70;99.90;;;;;;5025563;28;20029;-77
2022/11/28 12:18:45;;;;;;;4.20;4.07;;;5.70;99.90;;;;;;4982930;28;20519;-76
2022/11/28 12:21:21;;;;;;;7.72;3.45;;;5.70;99.90;;;;;;5032008;28;20037;-75
2022/11/28 12:24:05;;;;;;;2.75;2.65;;;5.70;99.90;;;;;;5007028;28;20030;-76
2022/11/28 12:26:39;;;;;;;3.67;3.47;;;5.70;99.90;;;;;;5014914;28;20391;-76
2022/11/28 12:29:29;;;;;;;2.70;2.60;;;5.60;99.90;;;;;;5010702;28;20057;-76
2022/11/28 12:32:01;;;;;;;2.42;2.33;;;5.60;99.90;;;;;;5011858;28;20361;-76
2022/11/28 12:35:04;;;;;;;2.55;2.45;;;5.60;99.90;;;;;;5013666;28;20018;-75
2022/11/28 12:37:39;;;;;;;3.65;3.45;;;5.60;99.90;;;;;;5030819;28;20033;-76
2022/11/28 12:40:12;;;;;;;3.03;2.87;;;5.40;99.90;;;;;;5030391;28;20512;-76
2022/11/28 12:42:59;;;;;;;2.60;2.50;;;5.40;99.90;;;;;;5031739;28;20028;-76
2022/11/28 12:45:52;;;;;;;2.33;2.22;;;5.40;99.90;;;;;;5031680;28;20022;-77
2022/11/28 12:48:47;;;;;;;2.65;2.55;;;5.30;99.90;;;;;;5029558;28;20121;-76
2022/11/28 12:51:30;;;;;;;2.35;2.25;;;5.40;99.90;;;;;;5018318;28;20511;-77
2022/11/28 12:54:31;;;;;;;2.83;2.72;;;5.40;99.90;;;;;;5031643;28;20112;-76
2022/11/28 12:56:59;;;;;;;1.90;1.90;;;5.50;99.90;;;;;;5018294;28;20044;-77
2022/11/28 12:59:36;;;;;;;1.75;1.75;;;5.50;99.90;;;;;;5004569;28;20458;-77
2022/11/28 13:02:16;;;;;;;2.10;2.00;;;5.50;99.90;;;;;;5031937;28;20041;-77
2022/11/28 13:05:06;;;;;;;1.90;1.90;;;5.60;99.90;;;;;;5030740;28;20427;-77
2022/11/28 13:07:43;;;;;;;2.80;2.70;;;5.60;99.90;;;;;;5006160;28;20096;-77
2022/11/28 13:10:25;;;;;;;2.97;2.28;;;5.60;99.90;;;;;;5031649;28;20025;-77
2022/11/28 13:13:04;;;;;;;2.58;2.47;;;5.60;99.90;;;;;;5030565;28;20038;-77
2022/11/28 13:15:36;;;;;;;2.50;2.40;;;5.60;99.90;;;;;;5026127;28;20030;-77
2022/11/28 13:18:11;;;;;;;1.40;1.40;;;5.70;99.90;;;;;;5027514;28;20072;-77
2022/11/28 13:20:45;;;;;;;1.30;1.30;;;5.70;99.90;;;;;;5035543;28;20101;-76
2022/11/28 13:23:30;;;;;;;1.50;1.50;;;5.80;99.90;;;;;;5031956;28;20037;-77